sensor_id;sensor_type;location;lat;lon;timestamp;pressure;altitude;pressure_sealevel;temperature;humidity
50087;BME280;35967;50.718;7.050;2023-06-14T00:00:53;100453.56;;;20.45;47.05
50087;BME280;35967;50.718;7.050;2023-06-14T00:10:58;100452.25;;;20.12;48.23
50087;BME280;35967;50.718;7.050;2023-06-14T00:21:03;100450.88;;;19.79;48.48
50087;BME280;35967;50.718;7.050;2023-06-14T00:31:06;100468.41;;;19.35;49.24
50087;BME280;35967;50.718;7.050;2023-06-14T00:41:11;100477.53;;;19.43;49.79
50087;BME280;35967;50.718;7.050;2023-06-14T00:51:16;100487.16;;;19.13;49.82
50087;BME280;35967;50.718;7.050;2023-06-14T01:01:21;100497.28;;;18.89;51.18
50087;BME280;35967;50.718;7.050;2023-06-14T01:11:24;100494.72;;;18.73;51.38
50087;BME280;35967;50.718;7.050;2023-06-14T01:21:32;100492.75;;;18.62;51.43
50087;BME280;35967;50.718;7.050;2023-06-14T01:31:44;100505.41;;;18.99;51.21
50087;BME280;35967;50.718;7.050;2023-06-14T01:41:48;100504.06;;;18.77;51.15
50087;BME280;35967;50.718;7.050;2023-06-14T01:51:54;100513.03;;;18.42;52.52
50087;BME280;35967;50.718;7.050;2023-06-14T02:01:57;100507.78;;;18.12;52.92
50087;BME280;35967;50.718;7.050;2023-06-14T02:12:01;100506.69;;;18.00;53.52
50087;BME280;35967;50.718;7.050;2023-06-14T02:22:04;100514.25;;;18.05;53.47
50087;BME280;35967;50.718;7.050;2023-06-14T02:32:10;100516.25;;;18.00;54.02
50087;BME280;35967;50.718;7.050;2023-06-14T02:42:14;100526.34;;;17.74;55.04
50087;BME280;35967;50.718;7.050;2023-06-14T02:52:18;100527.25;;;17.73;55.41
50087;BME280;35967;50.718;7.050;2023-06-14T03:02:22;100532.72;;;17.68;55.32
50087;BME280;35967;50.718;7.050;2023-06-14T03:12:26;100540.91;;;17.44;55.76
50087;BME280;35967;50.718;7.050;2023-06-14T03:22:30;100552.16;;;17.45;55.87
50087;BME280;35967;50.718;7.050;2023-06-14T03:32:36;100550.00;;;17.02;56.72
50087;BME280;35967;50.718;7.050;2023-06-14T03:42:41;100567.88;;;16.91;57.92
50087;BME280;35967;50.718;7.050;2023-06-14T03:52:46;100572.50;;;17.03;57.60
50087;BME280;35967;50.718;7.050;2023-06-14T04:02:51;100572.72;;;17.16;57.51
50087;BME280;35967;50.718;7.050;2023-06-14T04:12:56;100575.34;;;17.32;57.23
50087;BME280;35967;50.718;7.050;2023-06-14T04:23:10;100592.34;;;17.39;57.78
50087;BME280;35967;50.718;7.050;2023-06-14T04:33:16;100610.84;;;17.50;58.00
50087;BME280;35967;50.718;7.050;2023-06-14T04:43:20;100618.13;;;17.77;58.07
50087;BME280;35967;50.718;7.050;2023-06-14T04:53:31;100624.94;;;17.80;57.65
50087;BME280;35967;50.718;7.050;2023-06-14T05:03:34;100625.19;;;17.91;57.84
50087;BME280;35967;50.718;7.050;2023-06-14T05:13:39;100636.28;;;18.28;56.86
50087;BME280;35967;50.718;7.050;2023-06-14T05:23:45;100635.00;;;18.82;55.87
50087;BME280;35967;50.718;7.050;2023-06-14T05:33:49;100638.13;;;19.19;54.98
50087;BME280;35967;50.718;7.050;2023-06-14T05:43:53;100638.28;;;19.61;51.49
50087;BME280;35967;50.718;7.050;2023-06-14T05:53:57;100643.50;;;20.05;50.74
50087;BME280;35967;50.718;7.050;2023-06-14T06:04:01;100651.94;;;20.37;48.32
50087;BME280;35967;50.718;7.050;2023-06-14T06:14:05;100657.28;;;21.03;45.80
50087;BME280;35967;50.718;7.050;2023-06-14T06:24:08;100661.25;;;21.62;40.38
50087;BME280;35967;50.718;7.050;2023-06-14T06:34:13;100671.91;;;21.85;39.86
50087;BME280;35967;50.718;7.050;2023-06-14T06:44:15;100681.09;;;22.03;38.51
50087;BME280;35967;50.718;7.050;2023-06-14T06:54:24;100695.41;;;22.36;38.59
50087;BME280;35967;50.718;7.050;2023-06-14T07:04:27;100693.06;;;22.58;38.13
50087;BME280;35967;50.718;7.050;2023-06-14T07:14:31;100694.75;;;22.70;37.69
50087;BME280;35967;50.718;7.050;2023-06-14T07:24:34;100696.84;;;22.78;37.90
50087;BME280;35967;50.718;7.050;2023-06-14T07:34:39;100700.47;;;23.24;35.37
50087;BME280;35967;50.718;7.050;2023-06-14T07:44:42;100701.47;;;23.23;35.23
50087;BME280;35967;50.718;7.050;2023-06-14T07:54:47;100693.97;;;23.52;34.96
50087;BME280;35967;50.718;7.050;2023-06-14T08:04:50;100704.19;;;23.79;34.96
50087;BME280;35967;50.718;7.050;2023-06-14T08:14:55;100692.59;;;24.05;33.71
50087;BME280;35967;50.718;7.050;2023-06-14T08:25:14;100695.09;;;24.18;33.29
50087;BME280;35967;50.718;7.050;2023-06-14T08:35:19;100696.59;;;24.43;31.75
50087;BME280;35967;50.718;7.050;2023-06-14T08:45:23;100689.94;;;24.60;32.79
50087;BME280;35967;50.718;7.050;2023-06-14T08:55:31;100682.53;;;24.65;32.95
50087;BME280;35967;50.718;7.050;2023-06-14T09:05:38;100674.97;;;24.39;30.39
50087;BME280;35967;50.718;7.050;2023-06-14T09:15:43;100674.00;;;25.06;28.89
50087;BME280;35967;50.718;7.050;2023-06-14T09:25:46;100677.41;;;25.17;29.41
50087;BME280;35967;50.718;7.050;2023-06-14T09:35:55;100686.97;;;25.61;29.80
50087;BME280;35967;50.718;7.050;2023-06-14T09:45:57;100683.31;;;25.83;28.96
50087;BME280;35967;50.718;7.050;2023-06-14T09:56:03;100689.94;;;26.08;26.41
50087;BME280;35967;50.718;7.050;2023-06-14T10:06:07;100682.00;;;26.49;28.20
50087;BME280;35967;50.718;7.050;2023-06-14T10:16:15;100679.63;;;26.75;25.66
50087;BME280;35967;50.718;7.050;2023-06-14T10:26:20;100663.38;;;27.10;27.56
50087;BME280;35967;50.718;7.050;2023-06-14T10:36:28;100675.88;;;27.07;25.72
50087;BME280;35967;50.718;7.050;2023-06-14T10:46:32;100666.78;;;27.77;25.88
50087;BME280;35967;50.718;7.050;2023-06-14T10:56:37;100662.53;;;28.58;24.81
50087;BME280;35967;50.718;7.050;2023-06-14T11:06:45;100661.78;;;28.66;24.90
50087;BME280;35967;50.718;7.050;2023-06-14T11:16:50;100657.06;;;29.22;23.96
50087;BME280;35967;50.718;7.050;2023-06-14T11:26:55;100655.28;;;30.68;22.93
50087;BME280;35967;50.718;7.050;2023-06-14T11:36:59;100644.31;;;30.88;22.84
50087;BME280;35967;50.718;7.050;2023-06-14T11:47:03;100659.72;;;27.20;26.95
50087;BME280;35967;50.718;7.050;2023-06-14T11:57:08;100650.69;;;31.91;22.61
50087;BME280;35967;50.718;7.050;2023-06-14T12:07:12;100645.59;;;31.17;22.38
50087;BME280;35967;50.718;7.050;2023-06-14T12:17:18;100655.56;;;38.93;13.81
50087;BME280;35967;50.718;7.050;2023-06-14T12:27:22;100661.97;;;41.23;11.93
50087;BME280;35967;50.718;7.050;2023-06-14T12:37:27;100644.97;;;40.51;12.41
50087;BME280;35967;50.718;7.050;2023-06-14T12:47:32;100676.84;;;36.74;14.47
50087;BME280;35967;50.718;7.050;2023-06-14T12:57:36;100674.72;;;34.25;17.33
50087;BME280;35967;50.718;7.050;2023-06-14T13:07:39;100668.03;;;31.06;21.87
50087;BME280;35967;50.718;7.050;2023-06-14T13:17:44;100686.38;;;28.22;24.85
50087;BME280;35967;50.718;7.050;2023-06-14T13:27:51;100677.94;;;27.23;27.00
50087;BME280;35967;50.718;7.050;2023-06-14T13:37:56;100694.00;;;26.12;27.62
50087;BME280;35967;50.718;7.050;2023-06-14T13:47:59;100700.50;;;26.08;28.08
50087;BME280;35967;50.718;7.050;2023-06-14T13:58:03;100705.09;;;25.75;28.56
50087;BME280;35967;50.718;7.050;2023-06-14T14:08:06;100690.53;;;25.50;28.59
50087;BME280;35967;50.718;7.050;2023-06-14T14:18:11;100693.25;;;25.39;29.09
50087;BME280;35967;50.718;7.050;2023-06-14T14:28:14;100690.84;;;25.35;29.19
50087;BME280;35967;50.718;7.050;2023-06-14T14:38:21;100693.94;;;25.19;29.45
50087;BME280;35967;50.718;7.050;2023-06-14T14:48:24;100689.88;;;25.15;29.95
50087;BME280;35967;50.718;7.050;2023-06-14T14:58:29;100688.22;;;25.57;30.21
50087;BME280;35967;50.718;7.050;2023-06-14T15:08:32;100707.56;;;24.60;30.63
50087;BME280;35967;50.718;7.050;2023-06-14T15:18:36;100698.69;;;24.72;30.66
50087;BME280;35967;50.718;7.050;2023-06-14T15:28:39;100698.75;;;25.14;29.99
50087;BME280;35967;50.718;7.050;2023-06-14T15:38:44;100700.63;;;24.70;30.60
50087;BME280;35967;50.718;7.050;2023-06-14T15:48:46;100699.41;;;24.63;30.67
50087;BME280;35967;50.718;7.050;2023-06-14T15:58:51;100700.31;;;24.84;30.75
50087;BME280;35967;50.718;7.050;2023-06-14T16:08:54;100691.31;;;24.54;30.42
50087;BME280;35967;50.718;7.050;2023-06-14T16:18:58;100693.00;;;24.33;30.35
50087;BME280;35967;50.718;7.050;2023-06-14T16:29:01;100692.88;;;24.46;30.11
50087;BME280;35967;50.718;7.050;2023-06-14T16:39:06;100695.34;;;24.58;30.71
50087;BME280;35967;50.718;7.050;2023-06-14T16:49:09;100700.84;;;24.12;31.00
50087;BME280;35967;50.718;7.050;2023-06-14T16:59:13;100707.16;;;24.09;30.84
50087;BME280;35967;50.718;7.050;2023-06-14T17:09:18;100707.38;;;24.29;30.71
50087;BME280;35967;50.718;7.050;2023-06-14T17:19:22;100704.00;;;24.49;30.42
50087;BME280;35967;50.718;7.050;2023-06-14T17:29:25;100715.03;;;24.32;30.94
50087;BME280;35967;50.718;7.050;2023-06-14T17:39:30;100729.66;;;24.13;30.02
50087;BME280;35967;50.718;7.050;2023-06-14T17:49:33;100726.06;;;24.14;30.28
50087;BME280;35967;50.718;7.050;2023-06-14T17:59:38;100725.22;;;24.14;30.43
50087;BME280;35967;50.718;7.050;2023-06-14T18:09:41;100734.31;;;23.98;31.21
50087;BME280;35967;50.718;7.050;2023-06-14T18:19:45;100741.91;;;23.90;30.50
50087;BME280;35967;50.718;7.050;2023-06-14T18:29:48;100747.88;;;23.81;30.73
50087;BME280;35967;50.718;7.050;2023-06-14T18:39:56;100754.22;;;23.78;31.20
50087;BME280;35967;50.718;7.050;2023-06-14T18:49:59;100766.03;;;23.72;31.80
50087;BME280;35967;50.718;7.050;2023-06-14T19:00:04;100760.03;;;23.59;31.77
50087;BME280;35967;50.718;7.050;2023-06-14T19:10:07;100775.94;;;23.57;32.20
50087;BME280;35967;50.718;7.050;2023-06-14T19:20:12;100783.03;;;23.44;32.18
50087;BME280;35967;50.718;7.050;2023-06-14T19:30:17;100784.09;;;23.41;32.84
50087;BME280;35967;50.718;7.050;2023-06-14T19:40:22;100778.56;;;23.22;33.14
50087;BME280;35967;50.718;7.050;2023-06-14T20:25:26;100838.63;;;22.39;35.12
50087;BME280;35967;50.718;7.050;2023-06-14T20:35:29;100852.31;;;22.04;35.84
50087;BME280;35967;50.718;7.050;2023-06-14T20:45:33;100852.50;;;21.75;37.50
50087;BME280;35967;50.718;7.050;2023-06-14T20:55:39;100860.50;;;21.86;36.31
50087;BME280;35967;50.718;7.050;2023-06-14T21:05:53;100871.19;;;21.83;36.56
50087;BME280;35967;50.718;7.050;2023-06-14T21:15:56;100862.38;;;21.57;37.77
50087;BME280;35967;50.718;7.050;2023-06-14T21:26:00;100873.47;;;21.48;37.97
50087;BME280;35967;50.718;7.050;2023-06-14T21:36:03;100870.91;;;21.33;37.52
50087;BME280;35967;50.718;7.050;2023-06-14T21:46:08;100877.53;;;21.24;38.32
50087;BME280;35967;50.718;7.050;2023-06-14T21:56:11;100880.28;;;21.23;40.16
50087;BME280;35967;50.718;7.050;2023-06-14T22:06:15;100889.28;;;21.19;41.26
50087;BME280;35967;50.718;7.050;2023-06-14T22:16:19;100903.59;;;20.84;41.28
50087;BME280;35967;50.718;7.050;2023-06-14T22:26:26;100905.50;;;20.82;42.40
50087;BME280;35967;50.718;7.050;2023-06-14T22:36:41;100913.22;;;20.69;43.23
50087;BME280;35967;50.718;7.050;2023-06-14T22:46:46;100913.75;;;20.31;44.11
50087;BME280;35967;50.718;7.050;2023-06-14T22:56:49;100918.06;;;20.01;45.48
50087;BME280;35967;50.718;7.050;2023-06-14T23:06:56;100916.47;;;19.83;46.64
50087;BME280;35967;50.718;7.050;2023-06-14T23:16:59;100914.56;;;19.54;47.36
50087;BME280;35967;50.718;7.050;2023-06-14T23:27:04;100916.09;;;19.27;48.15
50087;BME280;35967;50.718;7.050;2023-06-14T23:37:10;100918.00;;;19.23;48.33
50087;BME280;35967;50.718;7.050;2023-06-14T23:47:15;100913.56;;;19.09;49.22
50087;BME280;35967;50.718;7.050;2023-06-14T23:57:18;100909.00;;;18.97;49.72
